PABI/DJN METAR and TAF weather

Enter ICAO airport designator
Station Type Date Time Source
PABI METAR 2021/07/28 03:53 UTC NOAA

PABI 280353Z 00000KT 3SM RA SCT055 OVC070 18/09 A2993 RMK AO2 RAB39 SLP137 P0000 T01780094


Station Type Date Time Source
PABI Decoded METAR 2021/07/28 03:53 UTC NOAA

ALLEN ARMY AIRFIELD, AK, United States (PABI) 64-00N 145-43W 391M
Jul 27, 2021 - 11:53 PM EDT / 2021.07.28 0353 UTC
Wind: Calm:0
Visibility: 3 mile(s):0
Sky conditions: overcast
Weather: rain
Precipitation last hour: A trace
Temperature: 64.0 F (17.8 C)
Dew Point: 48.9 F (9.4 C)
Relative Humidity: 57%
Pressure (altimeter): 29.93 in. Hg (1013 hPa)
ob: PABI 280353Z 00000KT 3SM RA SCT055 OVC070 18/09 A2993 RMK AO2 RAB39 SLP137 P0000 T01780094
cycle: 4

Station Type Date Time Source
PABI TAF 2021/07/27 22:14 UTC NOAA

TAF PABI 272200Z 2722/2904 VRB06KT 9999 SCT070 QNH2992INS
BECMG 2805/2806 VRB06KT 9000 -RA OVC040 QNH2994INS
BECMG 2818/2820 08006KT 9999 NSW OVC030 QNH2997INS TX19/2801Z TN11/2815Z

Example: see airport list